Time;durP1;ratioP1;P1;durP2;ratioP2;P2;SDS_P1;SDS_P2;PMS_P1;PMS_P2;Temp;Humidity;BMP_temperature;BMP_pressure;BME280_temperature;BME280_humidity;BME280_pressure;Samples;Min_cycle;Max_cycle;Signal;HPM_P1;HPM_P2
2021/01/22 00:00:29;;;;;;;140.38;71.32;;;77.20;2227.20;;;;;;5092933;28;20036;-65
2021/01/22 00:02:55;;;;;;;109.15;50.70;;;77.10;2227.20;;;;;;5092854;28;20028;-65
2021/01/22 00:05:21;;;;;;;103.00;49.97;;;77.10;2227.20;;;;;;5092643;28;20027;-69
2021/01/22 00:07:46;;;;;;;126.30;59.97;;;77.10;2227.20;;;;;;5093190;28;20032;-66
2021/01/22 00:10:12;;;;;;;107.82;52.30;;;77.00;2227.20;;;;;;5092937;28;20047;-66
2021/01/22 00:12:38;;;;;;;116.32;54.38;;;77.00;2227.20;;;;;;5093201;28;20421;-65
2021/01/22 00:15:05;;;;;;;105.90;50.58;;;76.90;2227.20;;;;;;5092793;28;20484;-66
2021/01/22 00:17:30;;;;;;;96.45;43.67;;;77.00;2227.20;;;;;;5093001;28;20094;-65
2021/01/22 00:19:56;;;;;;;98.03;44.80;;;77.10;2227.20;;;;;;5092152;28;20449;-68
2021/01/22 00:22:21;;;;;;;124.82;52.30;;;77.10;2227.20;;;;;;5091543;28;20469;-65
2021/01/22 00:24:47;;;;;;;88.18;40.50;;;77.10;2227.20;;;;;;5092215;28;20103;-67
2021/01/22 00:27:13;;;;;;;71.32;35.55;;;77.10;2227.20;;;;;;5060906;28;20103;-65
2021/01/22 00:29:38;;;;;;;47.80;26.23;;;77.10;2227.20;;;;;;5092804;28;20131;-65
2021/01/22 00:32:04;;;;;;;56.28;27.33;;;77.10;2227.20;;;;;;5091253;28;20369;-65
2021/01/22 00:34:30;;;;;;;52.72;26.20;;;77.10;2227.20;;;;;;5092479;28;20032;-66
2021/01/22 00:36:55;;;;;;;46.17;23.58;;;77.10;2227.20;;;;;;5092483;28;20115;-65
2021/01/22 00:39:21;;;;;;;42.13;23.00;;;77.20;2227.20;;;;;;5092252;28;20038;-66
2021/01/22 00:41:47;;;;;;;42.10;20.98;;;77.20;2227.20;;;;;;5092834;28;20047;-65
2021/01/22 00:44:13;;;;;;;37.30;19.50;;;77.30;2227.20;;;;;;5092510;28;20024;-65
2021/01/22 00:46:38;;;;;;;33.45;18.08;;;77.30;2227.20;;;;;;5091926;28;20049;-65
2021/01/22 00:49:04;;;;;;;33.88;17.73;;;77.40;2227.20;;;;;;5092313;28;20032;-66
2021/01/22 00:51:30;;;;;;;34.22;19.30;;;77.30;2227.20;;;;;;5092300;28;20399;-66
2021/01/22 00:53:55;;;;;;;40.80;21.77;;;77.40;2227.20;;;;;;5092434;28;20100;-65
2021/01/22 00:56:21;;;;;;;42.40;22.77;;;77.40;2227.20;;;;;;5092194;28;20024;-66
2021/01/22 00:58:46;;;;;;;44.70;22.88;;;77.40;2227.20;;;;;;5092486;28;20028;-66
2021/01/22 01:01:12;;;;;;;40.75;21.13;;;77.40;2227.20;;;;;;5092046;28;20028;-66
2021/01/22 01:03:38;;;;;;;36.97;19.92;;;77.40;2227.20;;;;;;5092164;28;20509;-65
2021/01/22 01:06:03;;;;;;;32.72;18.17;;;77.40;2227.20;;;;;;5092213;28;20028;-65
2021/01/22 01:08:29;;;;;;;30.75;16.77;;;77.40;2227.20;;;;;;5091802;28;20065;-66
2021/01/22 01:10:55;;;;;;;31.48;16.42;;;77.40;2227.20;;;;;;5074339;28;20028;-66
2021/01/22 01:13:21;;;;;;;28.17;16.75;;;77.40;2227.20;;;;;;5091911;28;20024;-66
2021/01/22 01:15:46;;;;;;;31.77;17.42;;;77.40;2227.20;;;;;;5074366;28;20361;-65
2021/01/22 01:18:12;;;;;;;35.35;19.13;;;77.40;2227.20;;;;;;5092114;28;20081;-65
2021/01/22 01:20:37;;;;;;;41.85;21.38;;;77.40;2227.20;;;;;;5072467;28;20476;-66
2021/01/22 01:23:03;;;;;;;37.33;20.15;;;77.40;2227.20;;;;;;5092287;28;20473;-66
2021/01/22 01:25:29;;;;;;;38.72;21.67;;;77.40;2227.20;;;;;;5091933;28;20031;-66
2021/01/22 01:27:54;;;;;;;42.75;21.98;;;77.40;2227.20;;;;;;5091912;28;20107;-66
2021/01/22 01:30:20;;;;;;;39.00;19.63;;;77.30;2227.20;;;;;;5092059;28;20044;-65
2021/01/22 01:32:46;;;;;;;33.85;17.55;;;77.30;2227.20;;;;;;5091986;28;20051;-65
2021/01/22 01:35:12;;;;;;;36.00;18.52;;;77.30;2227.20;;;;;;5092048;28;20024;-66
2021/01/22 01:37:37;;;;;;;35.08;17.52;;;77.30;2227.20;;;;;;5091924;28;20048;-65
2021/01/22 01:40:03;;;;;;;43.92;21.40;;;77.30;2227.20;;;;;;5092035;28;20036;-65
2021/01/22 01:42:29;;;;;;;25.98;13.88;;;77.30;2227.20;;;;;;5091755;28;20028;-65
2021/01/22 01:44:55;;;;;;;24.73;13.55;;;77.30;2227.20;;;;;;5092066;28;20039;-64
2021/01/22 01:47:20;;;;;;;25.67;13.68;;;77.30;2227.20;;;;;;5091832;28;20028;-64
2021/01/22 01:49:46;;;;;;;20.48;11.70;;;77.30;2227.20;;;;;;5091860;28;20380;-64
2021/01/22 01:52:12;;;;;;;23.20;11.70;;;77.50;2227.20;;;;;;5092035;28;20028;-64
2021/01/22 01:54:37;;;;;;;177.27;67.03;;;77.50;2227.20;;;;;;5059594;28;20062;-64
2021/01/22 01:57:03;;;;;;;80.35;32.65;;;77.60;2227.20;;;;;;5091854;28;20028;-65
2021/01/22 01:59:29;;;;;;;32.55;16.83;;;77.60;2227.20;;;;;;5092906;28;20027;-65
2021/01/22 02:01:54;;;;;;;28.85;14.02;;;77.70;2227.20;;;;;;5077755;28;20353;-64
2021/01/22 02:04:20;;;;;;;23.35;12.85;;;102.40;2227.20;;;;;;5077298;28;20028;-64
2021/01/22 02:06:45;;;;;;;24.38;13.95;;;77.70;2227.20;;;;;;5095620;28;20060;-64
2021/01/22 02:09:11;;;;;;;31.25;16.90;;;77.60;2227.20;;;;;;5095493;28;20421;-64
2021/01/22 02:11:37;;;;;;;35.25;18.05;;;77.60;2227.20;;;;;;5077438;28;20420;-66
2021/01/22 02:14:02;;;;;;;39.17;21.30;;;77.60;2227.20;;;;;;5043988;28;20024;-66
2021/01/22 02:16:28;;;;;;;42.38;24.77;;;77.60;2227.20;;;;;;5077127;28;20472;-65
2021/01/22 02:18:54;;;;;;;34.33;19.55;;;77.60;2227.20;;;;;;5060514;28;20020;-65
2021/01/22 02:21:32;;;;;;;36.40;20.08;;;77.60;2227.20;;;;;;5094844;28;20028;-67
2021/01/22 02:24:09;;;;;;;34.55;19.88;;;77.70;2227.20;;;;;;5077145;28;20477;-66
2021/01/22 02:26:53;;;;;;;30.88;16.25;;;77.70;2227.20;;;;;;5061322;28;20035;-65
2021/01/22 02:29:19;;;;;;;31.90;17.77;;;77.70;2227.20;;;;;;5076674;28;20111;-65
2021/01/22 02:31:45;;;;;;;33.90;19.70;;;102.40;2227.20;;;;;;5076800;28;20095;-65
2021/01/22 02:34:12;;;;;;;26.88;14.63;;;102.40;2227.20;;;;;;5060892;28;20384;-65
2021/01/22 02:36:39;;;;;;;42.00;22.38;;;102.50;2227.20;;;;;;5076733;28;20036;-65
2021/01/22 02:39:05;;;;;;;40.72;22.52;;;102.40;2227.20;;;;;;5060407;28;20028;-67
2021/01/22 02:41:32;;;;;;;34.20;19.05;;;102.40;2227.20;;;;;;5076749;28;20028;-65
2021/01/22 02:43:58;;;;;;;34.67;19.50;;;102.50;2227.20;;;;;;5094735;28;20539;-65
2021/01/22 02:46:23;;;;;;;24.92;14.25;;;102.50;2227.20;;;;;;5076679;28;20028;-65
2021/01/22 02:48:49;;;;;;;28.27;14.15;;;102.50;2227.20;;;;;;5060049;28;20052;-66
2021/01/22 02:51:15;;;;;;;30.60;15.40;;;102.50;2227.20;;;;;;5076681;28;20020;-65
2021/01/22 02:53:41;;;;;;;47.90;17.88;;;102.50;2227.20;;;;;;5094642;28;20028;-65
2021/01/22 02:56:13;;;;;;;56.75;19.23;;;102.60;2227.20;;;;;;5076603;28;20484;-65
2021/01/22 02:58:49;;;;;;;57.25;18.08;;;102.70;2227.20;;;;;;5060089;28;20515;-66
2021/01/22 03:01:16;;;;;;;31.67;12.95;;;102.80;2227.20;;;;;;5081139;28;20028;-65
2021/01/22 03:03:59;;;;;;;34.20;13.15;;;103.00;2227.20;;;;;;5059785;28;20035;-65
2021/01/22 03:06:27;;;;;;;32.42;12.98;;;103.20;2227.20;;;;;;5063693;28;20040;-66
2021/01/22 03:08:54;;;;;;;26.23;11.77;;;103.20;2227.20;;;;;;5094281;28;20028;-66
2021/01/22 03:11:20;;;;;;;22.73;10.95;;;103.30;2227.20;;;;;;5093890;28;20027;-65
2021/01/22 03:13:46;;;;;;;18.92;9.18;;;128.00;2252.80;;;;;;5076187;28;20012;-65
2021/01/22 03:16:11;;;;;;;36.60;14.52;;;128.10;2252.80;;;;;;5059599;28;20023;-65
2021/01/22 03:18:37;;;;;;;19.45;10.23;;;128.20;2252.80;;;;;;5076029;28;20380;-65
2021/01/22 03:21:07;;;;;;;21.23;10.82;;;128.20;2252.80;;;;;;5093975;28;20035;-66
2021/01/22 03:23:32;;;;;;;20.70;10.95;;;128.20;2252.80;;;;;;5059706;28;20433;-65
2021/01/22 03:25:58;;;;;;;19.08;11.02;;;128.20;2252.80;;;;;;5092996;28;20028;-65
2021/01/22 03:28:24;;;;;;;20.92;12.07;;;128.20;2252.80;;;;;;5093924;28;20024;-65
2021/01/22 03:30:49;;;;;;;28.83;14.27;;;128.20;2252.80;;;;;;5093875;28;20070;-65
2021/01/22 03:33:15;;;;;;;28.60;15.63;;;128.20;2252.80;;;;;;5093488;28;20016;-65
2021/01/22 03:35:40;;;;;;;34.40;16.80;;;128.20;2252.80;;;;;;5093904;28;20023;-66
2021/01/22 03:38:06;;;;;;;41.42;20.75;;;128.20;2252.80;;;;;;5093604;28;20055;-66
2021/01/22 03:40:32;;;;;;;49.38;25.67;;;128.10;2252.80;;;;;;5075586;28;20461;-66
2021/01/22 03:42:57;;;;;;;49.30;23.70;;;128.10;2252.80;;;;;;5093724;28;20027;-65
2021/01/22 03:45:23;;;;;;;58.00;26.73;;;128.10;2252.80;;;;;;5093397;28;20027;-66
2021/01/22 03:47:49;;;;;;;34.22;17.92;;;128.10;2252.80;;;;;;5093667;28;20292;-66
2021/01/22 03:50:15;;;;;;;43.58;20.30;;;128.00;2252.80;;;;;;5093452;28;20031;-65
2021/01/22 03:52:41;;;;;;;46.78;18.90;;;128.10;2252.80;;;;;;5094031;28;20021;-65
2021/01/22 03:55:07;;;;;;;40.55;18.23;;;128.10;2252.80;;;;;;5093425;28;20027;-66
2021/01/22 03:57:32;;;;;;;74.63;29.15;;;128.10;2252.80;;;;;;5093316;28;20099;-66
2021/01/22 03:59:58;;;;;;;72.72;28.75;;;128.00;2252.80;;;;;;5093480;28;20149;-66
2021/01/22 04:02:24;;;;;;;67.10;29.23;;;128.10;2252.80;;;;;;5093045;28;20148;-65
2021/01/22 04:04:50;;;;;;;28.55;15.05;;;128.10;2252.80;;;;;;5093371;28;20540;-65
2021/01/22 04:07:16;;;;;;;23.95;11.25;;;128.10;2252.80;;;;;;5093082;28;20157;-65
2021/01/22 04:09:42;;;;;;;51.97;20.90;;;128.30;2252.80;;;;;;5093059;28;20120;-65
2021/01/22 04:12:08;;;;;;;37.33;14.35;;;128.30;2252.80;;;;;;5093419;28;20105;-65
2021/01/22 04:14:33;;;;;;;35.63;13.40;;;128.50;2252.80;;;;;;5092970;28;20063;-66
2021/01/22 04:17:00;;;;;;;17.02;8.98;;;128.60;2227.20;;;;;;5093098;28;20117;-66
2021/01/22 04:19:25;;;;;;;42.00;16.17;;;128.70;2227.20;;;;;;5092836;28;20035;-66
2021/01/22 04:21:52;;;;;;;27.15;13.20;;;128.80;2201.60;;;;;;5092312;28;20389;-66
2021/01/22 04:24:17;;;;;;;32.55;13.65;;;128.70;2227.20;;;;;;5074729;28;20030;-66
2021/01/22 04:26:45;;;;;;;27.88;12.18;;;128.70;2227.20;;;;;;5092953;28;20027;-66
2021/01/22 04:29:11;;;;;;;29.05;12.77;;;128.70;2227.20;;;;;;5092727;28;20016;-67
2021/01/22 04:31:36;;;;;;;35.72;15.77;;;128.70;2227.20;;;;;;5092290;28;20385;-66
2021/01/22 04:34:02;;;;;;;58.83;23.50;;;128.70;2227.20;;;;;;5074724;28;20020;-66
2021/01/22 04:36:28;;;;;;;36.35;16.35;;;128.60;2227.20;;;;;;5092561;28;20044;-67
2021/01/22 04:38:53;;;;;;;46.45;20.60;;;128.60;2227.20;;;;;;5092440;28;20024;-69
2021/01/22 04:41:19;;;;;;;28.33;14.82;;;128.60;2227.20;;;;;;5092473;28;20020;-66
2021/01/22 04:43:44;;;;;;;34.85;18.52;;;128.60;2227.20;;;;;;5092540;28;20032;-65
2021/01/22 04:46:11;;;;;;;48.17;22.85;;;128.50;2227.20;;;;;;5074551;28;20099;-65
2021/01/22 04:48:39;;;;;;;49.45;21.88;;;128.50;2227.20;;;;;;5092309;28;20024;-66
2021/01/22 04:51:05;;;;;;;36.42;17.02;;;128.50;2252.80;;;;;;5074346;28;20043;-65
2021/01/22 04:53:31;;;;;;;48.97;21.00;;;128.60;2252.80;;;;;;5092377;28;20032;-65
2021/01/22 04:55:56;;;;;;;39.47;19.00;;;128.50;2227.20;;;;;;5092275;28;20354;-66
2021/01/22 04:58:23;;;;;;;44.55;21.23;;;128.40;2252.80;;;;;;5074348;28;20016;-65
2021/01/22 05:00:48;;;;;;;47.08;18.42;;;128.40;2252.80;;;;;;5057535;28;20023;-65
2021/01/22 05:03:14;;;;;;;46.22;20.77;;;128.40;2252.80;;;;;;5074124;28;20040;-65
2021/01/22 05:05:40;;;;;;;48.00;21.42;;;128.30;2252.80;;;;;;5090746;28;20415;-67
2021/01/22 05:08:06;;;;;;;35.20;16.38;;;128.30;2252.80;;;;;;5092171;28;20046;-66
2021/01/22 05:10:31;;;;;;;49.40;24.27;;;128.40;2252.80;;;;;;5074097;28;20074;-65
2021/01/22 05:12:57;;;;;;;52.78;26.17;;;128.40;2252.80;;;;;;5092066;28;20024;-66
2021/01/22 05:15:24;;;;;;;40.97;19.17;;;128.40;2252.80;;;;;;5074018;28;20016;-66
2021/01/22 05:17:53;;;;;;;41.65;19.35;;;128.40;2252.80;;;;;;5092303;28;20024;-67
2021/01/22 05:20:29;;;;;;;28.80;13.50;;;128.40;2252.80;;;;;;5091988;28;20197;-65
2021/01/22 05:22:55;;;;;;;37.28;16.58;;;128.40;2252.80;;;;;;5091940;28;20077;-67
2021/01/22 05:25:21;;;;;;;26.73;14.32;;;128.40;2252.80;;;;;;5074055;28;20430;-65
2021/01/22 05:27:48;;;;;;;27.63;13.18;;;128.30;2252.80;;;;;;5091673;28;20012;-66
2021/01/22 05:30:14;;;;;;;21.48;11.82;;;128.40;2252.80;;;;;;5090657;28;20073;-66
2021/01/22 05:32:39;;;;;;;21.75;11.98;;;128.40;2252.80;;;;;;5092173;28;20095;-66
2021/01/22 05:35:06;;;;;;;24.23;12.32;;;128.40;2252.80;;;;;;5095900;28;20099;-66
2021/01/22 05:37:31;;;;;;;23.85;11.70;;;128.60;2252.80;;;;;;5095947;28;20055;-66
2021/01/22 05:40:17;;;;;;;41.72;15.65;;;128.70;2227.20;;;;;;5096044;28;20489;-66
2021/01/22 05:42:56;;;;;;;23.15;12.30;;;128.70;2227.20;;;;;;5095894;28;20059;-65
2021/01/22 05:45:44;;;;;;;25.65;13.40;;;128.70;2227.20;;;;;;5095725;28;20104;-66
2021/01/22 05:48:23;;;;;;;37.75;13.70;;;128.70;2227.20;;;;;;5096121;28;20108;-66
2021/01/22 05:50:55;;;;;;;21.20;11.20;;;128.70;2227.20;;;;;;5095630;28;20020;-66
2021/01/22 05:53:21;;;;;;;27.25;11.52;;;128.70;2227.20;;;;;;5096037;28;20028;-66
2021/01/22 05:56:15;;;;;;;24.30;10.65;;;128.80;2227.20;;;;;;5077422;28;20050;-66
2021/01/22 05:58:44;;;;;;;19.70;9.88;;;128.70;2227.20;;;;;;5095824;28;20024;-66
2021/01/22 06:01:20;;;;;;;21.50;9.93;;;128.80;2227.20;;;;;;5095304;28;20473;-66
2021/01/22 06:03:49;;;;;;;33.15;16.52;;;128.80;2227.20;;;;;;5095595;28;20028;-65
2021/01/22 06:06:15;;;;;;;44.05;19.10;;;128.70;2227.20;;;;;;5094799;28;20030;-65
2021/01/22 06:08:50;;;;;;;35.00;17.10;;;128.60;2252.80;;;;;;5095360;28;20028;-67
2021/01/22 06:11:25;;;;;;;38.13;18.77;;;128.60;2252.80;;;;;;5076842;28;20030;-66
2021/01/22 06:13:52;;;;;;;21.70;11.07;;;128.60;2252.80;;;;;;5095462;28;20024;-65
2021/01/22 06:16:22;;;;;;;24.58;13.95;;;128.70;2227.20;;;;;;5094986;28;20055;-65
2021/01/22 06:19:06;;;;;;;21.88;11.57;;;128.70;2227.20;;;;;;5095561;28;20042;-65
2021/01/22 06:21:38;;;;;;;38.97;22.35;;;128.60;2252.80;;;;;;5094617;28;20366;-66
2021/01/22 06:24:05;;;;;;;16.13;10.35;;;128.60;2227.20;;;;;;5095376;28;20089;-67
2021/01/22 06:26:31;;;;;;;34.88;17.15;;;128.70;2252.80;;;;;;5094700;28;20016;-66
2021/01/22 06:29:01;;;;;;;35.78;18.13;;;128.60;2252.80;;;;;;5094902;28;20024;-64
2021/01/22 06:31:27;;;;;;;42.87;21.60;;;128.70;2227.20;;;;;;5076840;28;20023;-64
2021/01/22 06:33:53;;;;;;;39.10;18.58;;;128.70;2227.20;;;;;;5094998;28;20016;-65
2021/01/22 06:36:19;;;;;;;63.33;28.55;;;128.70;2227.20;;;;;;5060057;28;20095;-65
2021/01/22 06:38:44;;;;;;;153.98;61.00;;;128.70;2227.20;;;;;;5060084;28;20039;-64
2021/01/22 06:41:10;;;;;;;275.27;101.05;;;128.80;2227.20;;;;;;5076747;28;20027;-64
2021/01/22 06:43:39;;;;;;;134.85;56.17;;;128.90;2227.20;;;;;;5076611;28;20035;-65
2021/01/22 06:46:07;;;;;;;113.00;47.00;;;128.90;2227.20;;;;;;5093985;28;20028;-64
2021/01/22 06:48:52;;;;;;;109.65;47.20;;;153.60;2201.60;;;;;;5060203;28;20107;-64
2021/01/22 06:51:18;;;;;;;58.53;28.92;;;153.60;2201.60;;;;;;5094831;28;20020;-64
2021/01/22 06:54:06;;;;;;;74.00;32.30;;;153.60;2201.60;;;;;;5094751;28;20496;-65
2021/01/22 06:56:32;;;;;;;67.32;34.78;;;153.70;2201.60;;;;;;5094841;28;20047;-64
2021/01/22 06:59:25;;;;;;;61.33;29.13;;;153.80;2201.60;;;;;;5094607;28;20028;-64
2021/01/22 07:01:52;;;;;;;37.47;22.30;;;153.90;2176.00;;;;;;5094647;28;20024;-64
2021/01/22 07:04:40;;;;;;;63.33;36.92;;;154.00;2150.40;;;;;;5094434;28;20031;-65
2021/01/22 07:07:09;;;;;;;70.00;33.63;;;154.20;2150.40;;;;;;5094778;28;20024;-65
2021/01/22 07:09:41;;;;;;;38.42;20.10;;;154.20;2150.40;;;;;;5094019;28;20028;-66
2021/01/22 07:12:07;;;;;;;57.47;28.27;;;154.30;2150.40;;;;;;5094243;28;20024;-65
2021/01/22 07:14:39;;;;;;;48.63;26.42;;;154.30;2124.80;;;;;;5094492;28;20407;-65
2021/01/22 07:17:21;;;;;;;62.58;34.08;;;154.40;2124.80;;;;;;5094476;28;20059;-65
2021/01/22 07:20:07;;;;;;;76.05;39.92;;;154.50;2099.20;;;;;;5093330;28;20779;-64
2021/01/22 07:22:32;;;;;;;55.05;29.27;;;179.20;2099.20;;;;;;5093842;28;20063;-65
2021/01/22 07:24:59;;;;;;;64.22;33.05;;;179.30;2073.60;;;;;;5094064;28;20052;-66
2021/01/22 07:27:41;;;;;;;56.17;27.98;;;179.40;2073.60;;;;;;5093639;28;20036;-65
2021/01/22 07:30:16;;;;;;;51.25;27.58;;;179.40;2073.60;;;;;;5090667;28;20108;-65
2021/01/22 07:32:43;;;;;;;25.98;12.88;;;179.40;2073.60;;;;;;5093610;28;20021;-65
2021/01/22 07:35:22;;;;;;;31.40;16.45;;;179.50;2073.60;;;;;;5093852;28;20024;-65
2021/01/22 07:37:48;;;;;;;35.75;18.05;;;179.60;2048.00;;;;;;5093658;28;20044;-65
2021/01/22 07:40:14;;;;;;;31.52;15.85;;;179.50;2048.00;;;;;;5093745;28;20032;-65
2021/01/22 07:42:40;;;;;;;40.97;18.58;;;179.60;2048.00;;;;;;5093485;28;20050;-65
2021/01/22 07:45:07;;;;;;;27.98;14.75;;;179.60;2048.00;;;;;;5093766;28;20445;-65
2021/01/22 07:47:33;;;;;;;31.25;15.15;;;179.70;2048.00;;;;;;5080545;28;20035;-65
2021/01/22 07:50:00;;;;;;;34.38;16.88;;;179.70;2048.00;;;;;;5093551;28;20067;-65
2021/01/22 07:52:26;;;;;;;28.20;13.93;;;179.70;2048.00;;;;;;5093148;28;20034;-65
2021/01/22 07:54:52;;;;;;;27.17;16.02;;;179.80;2022.40;;;;;;5093379;28;20111;-64
2021/01/22 07:57:22;;;;;;;25.60;13.98;;;179.90;2022.40;;;;;;5093373;28;20095;-66
2021/01/22 07:59:48;;;;;;;28.35;15.18;;;180.00;1996.80;;;;;;5093685;28;20129;-66
2021/01/22 08:02:16;;;;;;;29.33;16.65;;;180.10;1996.80;;;;;;5074839;28;20165;-65
2021/01/22 08:04:43;;;;;;;26.52;12.52;;;180.10;1996.80;;;;;;5093213;28;20024;-65
2021/01/22 08:07:08;;;;;;;25.35;13.95;;;180.10;1996.80;;;;;;5093277;28;20081;-65
2021/01/22 08:09:34;;;;;;;33.28;17.40;;;204.80;1971.20;;;;;;5092835;28;20431;-65
2021/01/22 08:12:10;;;;;;;37.35;19.60;;;204.80;1971.20;;;;;;5093661;28;20062;-65
2021/01/22 08:14:36;;;;;;;33.53;18.05;;;204.80;1996.80;;;;;;5093040;28;20492;-65
2021/01/22 08:17:05;;;;;;;33.03;15.98;;;204.90;1971.20;;;;;;5092943;28;20024;-65
2021/01/22 08:19:32;;;;;;;43.45;19.73;;;205.00;1971.20;;;;;;5092648;28;20038;-65
2021/01/22 08:21:58;;;;;;;61.10;27.83;;;205.00;1971.20;;;;;;5093159;28;20028;-64
2021/01/22 08:24:23;;;;;;;58.60;26.42;;;205.10;1971.20;;;;;;5074530;28;20115;-64
2021/01/22 08:26:59;;;;;;;41.95;20.25;;;205.10;1971.20;;;;;;5093195;28;20461;-65
2021/01/22 08:29:26;;;;;;;58.53;22.67;;;205.20;1945.60;;;;;;5092600;28;20393;-65
2021/01/22 08:31:53;;;;;;;78.15;26.33;;;205.20;1945.60;;;;;;5058308;28;20016;-65
2021/01/22 08:34:19;;;;;;;67.43;26.63;;;205.20;1945.60;;;;;;5075182;28;20035;-65
2021/01/22 08:36:45;;;;;;;64.47;27.30;;;205.20;1945.60;;;;;;5057958;28;20048;-65
2021/01/22 08:39:10;;;;;;;45.03;20.77;;;205.30;1945.60;;;;;;5092827;28;20032;-65
2021/01/22 08:41:36;;;;;;;40.83;19.40;;;205.30;1920.00;;;;;;5074803;28;20358;-65
2021/01/22 08:44:02;;;;;;;49.53;24.42;;;205.40;1920.00;;;;;;5092833;28;20016;-65
2021/01/22 08:46:27;;;;;;;41.42;19.73;;;205.40;1920.00;;;;;;5092569;28;20047;-65
2021/01/22 08:48:53;;;;;;;39.75;19.17;;;205.30;1945.60;;;;;;5074506;28;20028;-65
2021/01/22 08:51:29;;;;;;;33.70;18.25;;;205.40;1920.00;;;;;;5092329;28;20024;-66
2021/01/22 08:53:56;;;;;;;32.08;18.70;;;205.40;1920.00;;;;;;5092374;28;20054;-64
2021/01/22 08:56:22;;;;;;;39.13;23.45;;;205.40;1920.00;;;;;;5092452;28;20464;-64
2021/01/22 08:58:57;;;;;;;40.45;23.70;;;205.60;1920.00;;;;;;5092469;28;20047;-64
2021/01/22 09:01:28;;;;;;;34.72;20.10;;;205.50;1920.00;;;;;;5091788;28;20107;-66
2021/01/22 09:03:54;;;;;;;39.08;23.02;;;205.60;1894.40;;;;;;5074217;28;20035;-64
2021/01/22 09:06:19;;;;;;;44.85;24.48;;;205.70;1894.40;;;;;;5074097;28;20036;-65
2021/01/22 09:08:55;;;;;;;52.97;28.77;;;205.70;1894.40;;;;;;5091702;28;20031;-65
2021/01/22 09:11:39;;;;;;;58.08;30.08;;;205.70;1894.40;;;;;;5086119;28;20032;-66
2021/01/22 09:14:04;;;;;;;47.50;25.42;;;205.70;1894.40;;;;;;5090876;28;20149;-64
2021/01/22 09:16:30;;;;;;;28.48;17.00;;;230.40;1868.80;;;;;;5092366;28;20091;-65
2021/01/22 09:18:59;;;;;;;30.27;16.45;;;230.50;1868.80;;;;;;5076095;28;20024;-66
2021/01/22 09:21:25;;;;;;;25.00;13.55;;;230.70;1843.20;;;;;;5090427;28;20039;-64
2021/01/22 09:23:50;;;;;;;24.05;14.55;;;230.70;1843.20;;;;;;5072986;28;20024;-66
2021/01/22 09:26:16;;;;;;;18.55;11.52;;;230.80;1843.20;;;;;;5088173;28;20095;-69
2021/01/22 09:28:42;;;;;;;18.88;11.65;;;230.90;1792.00;;;;;;5091193;28;20103;-64
2021/01/22 09:31:07;;;;;;;29.05;16.65;;;231.00;1792.00;;;;;;5091313;28;20387;-66
2021/01/22 09:33:33;;;;;;;37.08;21.98;;;231.00;1792.00;;;;;;5090322;28;20031;-63
2021/01/22 09:35:59;;;;;;;14.75;8.02;;;231.10;1792.00;;;;;;5091580;28;20016;-65
2021/01/22 09:38:25;;;;;;;24.70;14.20;;;231.30;1766.40;;;;;;5075273;28;20050;-65
2021/01/22 09:40:51;;;;;;;46.35;24.08;;;256.20;1740.80;;;;;;5091574;28;20055;-67
2021/01/22 09:43:17;;;;;;;22.40;13.98;;;256.80;1689.60;;;;;;5090911;28;20450;-68
2021/01/22 09:45:43;;;;;;;19.92;13.52;;;256.70;1689.60;;;;;;5091468;28;20032;-65
2021/01/22 09:48:09;;;;;;;36.97;22.15;;;256.70;1689.60;;;;;;5091088;28;20488;-66
2021/01/22 09:50:35;;;;;;;40.03;23.52;;;281.60;1689.60;;;;;;5092224;28;20032;-68
2021/01/22 09:53:01;;;;;;;46.03;27.67;;;281.80;1689.60;;;;;;5091901;28;20366;-66
2021/01/22 09:55:27;;;;;;;57.63;29.63;;;281.80;1664.00;;;;;;5090833;28;20037;-65
2021/01/22 09:57:52;;;;;;;40.53;23.95;;;282.00;1664.00;;;;;;5091361;28;20453;-65
2021/01/22 10:00:18;;;;;;;26.63;17.40;;;282.10;1664.00;;;;;;5089631;28;20056;-65
2021/01/22 10:02:44;;;;;;;28.80;18.95;;;281.90;1664.00;;;;;;5091518;28;20548;-65
2021/01/22 10:05:10;;;;;;;35.17;20.70;;;282.30;1638.40;;;;;;5091669;28;20063;-65
2021/01/22 10:07:36;;;;;;;29.00;18.45;;;282.20;1638.40;;;;;;5091625;28;20130;-65
2021/01/22 10:10:02;;;;;;;37.35;24.55;;;282.30;1638.40;;;;;;5089750;28;20107;-64
2021/01/22 10:12:27;;;;;;;20.10;13.07;;;282.00;1664.00;;;;;;5090396;28;20052;-65
2021/01/22 10:14:53;;;;;;;21.77;13.05;;;281.90;1689.60;;;;;;5090711;28;20512;-67
2021/01/22 10:17:20;;;;;;;19.52;11.05;;;282.10;1664.00;;;;;;5091216;28;20385;-66
2021/01/22 10:19:45;;;;;;;26.17;16.65;;;282.00;1689.60;;;;;;5091493;28;20024;-65
2021/01/22 10:22:11;;;;;;;25.10;15.77;;;282.00;1664.00;;;;;;5095565;28;20028;-66
2021/01/22 10:24:37;;;;;;;30.58;18.38;;;281.90;1689.60;;;;;;5095629;28;20054;-66
2021/01/22 10:27:02;;;;;;;25.60;17.42;;;281.80;1689.60;;;;;;5094238;28;20107;-65
2021/01/22 10:29:28;;;;;;;22.15;14.95;;;281.60;1715.20;;;;;;5093529;28;20376;-66
2021/01/22 10:31:54;;;;;;;21.30;12.75;;;281.60;1715.20;;;;;;5094931;28;20400;-65
2021/01/22 10:34:19;;;;;;;19.17;12.90;;;281.70;1689.60;;;;;;5099179;28;20056;-66
2021/01/22 10:36:45;;;;;;;27.02;19.17;;;281.80;1689.60;;;;;;5093774;28;20577;-64
2021/01/22 10:39:10;;;;;;;29.30;18.25;;;281.90;1689.60;;;;;;5095337;28;20062;-64
2021/01/22 10:41:36;;;;;;;22.05;15.40;;;282.00;1689.60;;;;;;5094347;28;20028;-64
2021/01/22 10:44:02;;;;;;;21.13;13.13;;;282.10;1664.00;;;;;;5094988;28;20039;-64
2021/01/22 10:46:28;;;;;;;22.55;14.35;;;281.90;1689.60;;;;;;5094741;28;20097;-64
2021/01/22 10:48:54;;;;;;;16.75;9.93;;;282.10;1664.00;;;;;;5094548;28;20032;-64
2021/01/22 10:51:20;;;;;;;21.15;13.18;;;281.70;1689.60;;;;;;5095262;28;20063;-64
2021/01/22 10:53:45;;;;;;;18.63;12.43;;;281.90;1689.60;;;;;;5095118;28;20048;-64
2021/01/22 10:56:11;;;;;;;25.42;16.08;;;281.90;1689.60;;;;;;5095196;28;20069;-64
2021/01/22 10:58:38;;;;;;;21.85;13.02;;;281.90;1664.00;;;;;;5095136;28;20389;-64
2021/01/22 11:01:03;;;;;;;27.33;15.07;;;281.80;1689.60;;;;;;5094144;28;20027;-64
2021/01/22 11:03:30;;;;;;;25.92;15.60;;;282.20;1664.00;;;;;;5094399;28;20089;-64
2021/01/22 11:05:56;;;;;;;16.63;10.35;;;282.00;1689.60;;;;;;5094457;28;20024;-65
2021/01/22 11:08:22;;;;;;;18.85;12.55;;;281.90;1715.20;;;;;;5094170;28;20070;-66
2021/01/22 11:10:48;;;;;;;13.73;8.25;;;281.70;1740.80;;;;;;5094568;28;20035;-65
2021/01/22 11:13:13;;;;;;;15.05;8.88;;;281.60;1740.80;;;;;;5094980;28;20012;-65
2021/01/22 11:15:39;;;;;;;20.90;9.32;;;281.70;1740.80;;;;;;5095073;28;20051;-64
2021/01/22 11:18:05;;;;;;;33.33;15.50;;;256.90;1715.20;;;;;;5093431;28;20027;-64
2021/01/22 11:20:30;;;;;;;26.00;12.45;;;256.90;1740.80;;;;;;5093994;28;20031;-64
2021/01/22 11:22:56;;;;;;;26.10;13.75;;;256.90;1740.80;;;;;;5094418;28;20027;-63
2021/01/22 11:25:22;;;;;;;37.08;18.73;;;256.90;1715.20;;;;;;5092957;28;20032;-65
2021/01/22 11:27:48;;;;;;;19.50;10.80;;;281.70;1740.80;;;;;;5092700;28;20118;-64
2021/01/22 11:30:15;;;;;;;22.52;12.20;;;281.70;1740.80;;;;;;5092722;28;20329;-64
2021/01/22 11:32:41;;;;;;;18.05;10.30;;;281.60;1740.80;;;;;;5091183;28;20031;-64
2021/01/22 11:35:10;;;;;;;27.92;14.30;;;256.90;1715.20;;;;;;5091994;28;20024;-65
2021/01/22 11:37:44;;;;;;;19.35;10.32;;;256.80;1740.80;;;;;;5092893;28;20436;-64
2021/01/22 11:40:10;;;;;;;16.30;8.98;;;256.70;1740.80;;;;;;5094593;28;20051;-64
2021/01/22 11:42:35;;;;;;;13.65;8.00;;;256.60;1766.40;;;;;;5093690;28;20085;-63
2021/01/22 11:45:01;;;;;;;15.98;9.20;;;256.50;1766.40;;;;;;5093494;28;20017;-63
2021/01/22 11:47:27;;;;;;;17.75;9.85;;;256.40;1766.40;;;;;;5093136;28;20419;-64
2021/01/22 11:49:53;;;;;;;16.88;10.52;;;256.30;1792.00;;;;;;5093331;28;20039;-62
2021/01/22 11:52:18;;;;;;;14.00;8.82;;;256.30;1792.00;;;;;;5093059;28;20027;-63
2021/01/22 11:54:44;;;;;;;15.90;9.35;;;256.20;1792.00;;;;;;5092121;28;20032;-63
2021/01/22 11:57:10;;;;;;;19.65;10.75;;;256.30;1792.00;;;;;;5092853;28;20073;-63
2021/01/22 11:59:35;;;;;;;11.60;7.07;;;256.30;1766.40;;;;;;5072770;28;20165;-63
2021/01/22 12:02:01;;;;;;;11.40;7.75;;;256.40;1766.40;;;;;;5093152;28;20031;-64